sensor_id;sensor_type;location;lat;lon;timestamp;temperature;humidity
31046;DHT22;17711;54.018;9.300;2022-10-03T13:33:12;17.20;99.90
31046;DHT22;17711;54.018;9.300;2022-10-03T13:35:45;17.00;99.90
31046;DHT22;17711;54.018;9.300;2022-10-03T13:41:48;17.50;99.90
31046;DHT22;17711;54.018;9.300;2022-10-03T13:44:23;17.80;99.90
31046;DHT22;17711;54.018;9.300;2022-10-03T13:47:01;18.20;99.90
31046;DHT22;17711;54.018;9.300;2022-10-03T13:49:46;18.60;99.90
31046;DHT22;17711;54.018;9.300;2022-10-03T13:52:19;19.00;99.90
31046;DHT22;17711;54.018;9.300;2022-10-03T13:55:28;19.20;99.90
31046;DHT22;17711;54.018;9.300;2022-10-03T13:58:25;19.30;99.90
31046;DHT22;17711;54.018;9.300;2022-10-03T14:01:13;19.40;99.90
31046;DHT22;17711;54.018;9.300;2022-10-03T14:04:10;19.50;99.90
31046;DHT22;17711;54.018;9.300;2022-10-03T14:06:50;19.70;99.90
31046;DHT22;17711;54.018;9.300;2022-10-03T14:09:48;19.60;99.90
31046;DHT22;17711;54.018;9.300;2022-10-03T14:12:24;19.50;99.90
31046;DHT22;17711;54.018;9.300;2022-10-03T14:15:25;19.40;99.90
31046;DHT22;17711;54.018;9.300;2022-10-03T14:18:07;19.20;99.90
31046;DHT22;17711;54.018;9.300;2022-10-03T14:21:13;19.10;99.90
31046;DHT22;17711;54.018;9.300;2022-10-03T14:23:51;19.00;99.90
31046;DHT22;17711;54.018;9.300;2022-10-03T14:26:28;19.00;99.90
31046;DHT22;17711;54.018;9.300;2022-10-03T14:29:05;18.90;99.90
31046;DHT22;17711;54.018;9.300;2022-10-03T14:31:43;18.80;99.90
31046;DHT22;17711;54.018;9.300;2022-10-03T14:34:33;18.70;99.90
31046;DHT22;17711;54.018;9.300;2022-10-03T14:37:13;18.40;99.90
31046;DHT22;17711;54.018;9.300;2022-10-03T14:39:53;18.20;99.90
31046;DHT22;17711;54.018;9.300;2022-10-03T14:42:35;17.90;99.90
31046;DHT22;17711;54.018;9.300;2022-10-03T14:45:07;17.80;99.90
31046;DHT22;17711;54.018;9.300;2022-10-03T14:47:40;17.60;99.90
31046;DHT22;17711;54.018;9.300;2022-10-03T14:50:16;17.60;99.90
31046;DHT22;17711;54.018;9.300;2022-10-03T14:52:51;17.50;99.90
31046;DHT22;17711;54.018;9.300;2022-10-03T14:55:33;17.50;99.90
31046;DHT22;17711;54.018;9.300;2022-10-03T14:58:12;17.40;99.90
31046;DHT22;17711;54.018;9.300;2022-10-03T15:00:45;17.30;99.90
31046;DHT22;17711;54.018;9.300;2022-10-03T15:03:29;17.30;99.90
31046;DHT22;17711;54.018;9.300;2022-10-03T15:06:19;17.30;99.90
31046;DHT22;17711;54.018;9.300;2022-10-03T15:08:51;17.20;99.90
31046;DHT22;17711;54.018;9.300;2022-10-03T15:11:25;17.20;99.90
31046;DHT22;17711;54.018;9.300;2022-10-03T15:13:58;17.20;99.90
31046;DHT22;17711;54.018;9.300;2022-10-03T15:16:31;17.20;99.90
31046;DHT22;17711;54.018;9.300;2022-10-03T15:19:05;17.20;99.90
31046;DHT22;17711;54.018;9.300;2022-10-03T15:21:37;17.20;99.90
31046;DHT22;17711;54.018;9.300;2022-10-03T15:24:12;17.20;99.90
31046;DHT22;17711;54.018;9.300;2022-10-03T15:26:57;17.10;99.90
31046;DHT22;17711;54.018;9.300;2022-10-03T15:29:29;17.00;99.90
31046;DHT22;17711;54.018;9.300;2022-10-03T15:31:59;16.90;99.90
31046;DHT22;17711;54.018;9.300;2022-10-03T15:34:36;16.80;99.90
31046;DHT22;17711;54.018;9.300;2022-10-03T15:37:13;16.80;99.90
31046;DHT22;17711;54.018;9.300;2022-10-03T15:39:44;16.60;99.90
31046;DHT22;17711;54.018;9.300;2022-10-03T15:42:21;16.50;99.90
31046;DHT22;17711;54.018;9.300;2022-10-03T15:44:53;16.50;99.90
31046;DHT22;17711;54.018;9.300;2022-10-03T15:47:25;16.40;99.90
31046;DHT22;17711;54.018;9.300;2022-10-03T15:49:59;16.40;99.90
31046;DHT22;17711;54.018;9.300;2022-10-03T15:52:34;16.30;99.90
31046;DHT22;17711;54.018;9.300;2022-10-03T15:55:12;16.30;99.90
31046;DHT22;17711;54.018;9.300;2022-10-03T15:57:45;16.20;99.90
31046;DHT22;17711;54.018;9.300;2022-10-03T16:00:20;16.20;99.90
31046;DHT22;17711;54.018;9.300;2022-10-03T16:02:59;16.10;99.90
31046;DHT22;17711;54.018;9.300;2022-10-03T16:05:29;16.10;99.90
31046;DHT22;17711;54.018;9.300;2022-10-03T16:08:02;16.00;99.90
31046;DHT22;17711;54.018;9.300;2022-10-03T16:10:37;16.00;99.90
31046;DHT22;17711;54.018;9.300;2022-10-03T16:13:20;15.90;99.90
31046;DHT22;17711;54.018;9.300;2022-10-03T16:16:06;15.90;99.90
31046;DHT22;17711;54.018;9.300;2022-10-03T16:18:55;16.00;99.90
31046;DHT22;17711;54.018;9.300;2022-10-03T16:21:46;16.00;99.90
31046;DHT22;17711;54.018;9.300;2022-10-03T16:24:26;15.90;99.90
31046;DHT22;17711;54.018;9.300;2022-10-03T16:27:07;15.80;99.90
31046;DHT22;17711;54.018;9.300;2022-10-03T16:29:43;15.70;99.90
31046;DHT22;17711;54.018;9.300;2022-10-03T16:32:19;15.70;99.90
31046;DHT22;17711;54.018;9.300;2022-10-03T16:34:50;15.60;99.90
31046;DHT22;17711;54.018;9.300;2022-10-03T16:37:23;15.60;99.90
31046;DHT22;17711;54.018;9.300;2022-10-03T16:39:56;15.60;99.90
31046;DHT22;17711;54.018;9.300;2022-10-03T16:42:35;15.50;99.90
31046;DHT22;17711;54.018;9.300;2022-10-03T16:45:19;15.50;99.90
31046;DHT22;17711;54.018;9.300;2022-10-03T16:47:49;15.50;99.90
31046;DHT22;17711;54.018;9.300;2022-10-03T16:50:42;15.40;99.90
31046;DHT22;17711;54.018;9.300;2022-10-03T16:53:14;15.30;99.90
31046;DHT22;17711;54.018;9.300;2022-10-03T16:55:47;15.30;99.90
31046;DHT22;17711;54.018;9.300;2022-10-03T16:58:19;15.20;99.90
31046;DHT22;17711;54.018;9.300;2022-10-03T17:00:58;15.20;99.90
31046;DHT22;17711;54.018;9.300;2022-10-03T17:03:54;15.10;99.90
31046;DHT22;17711;54.018;9.300;2022-10-03T17:06:29;15.00;99.90
31046;DHT22;17711;54.018;9.300;2022-10-03T17:09:03;15.00;99.90
31046;DHT22;17711;54.018;9.300;2022-10-03T17:11:36;15.00;99.90
31046;DHT22;17711;54.018;9.300;2022-10-03T17:14:07;14.90;99.90
31046;DHT22;17711;54.018;9.300;2022-10-03T17:16:40;14.90;99.90
31046;DHT22;17711;54.018;9.300;2022-10-03T17:19:27;14.80;99.90
31046;DHT22;17711;54.018;9.300;2022-10-03T17:22:04;14.80;99.90
31046;DHT22;17711;54.018;9.300;2022-10-03T17:24:41;14.70;99.90
31046;DHT22;17711;54.018;9.300;2022-10-03T17:27:17;14.70;99.90
31046;DHT22;17711;54.018;9.300;2022-10-03T17:29:55;14.70;99.90
31046;DHT22;17711;54.018;9.300;2022-10-03T17:32:28;14.60;99.90
31046;DHT22;17711;54.018;9.300;2022-10-03T17:35:04;14.60;99.90
31046;DHT22;17711;54.018;9.300;2022-10-03T17:37:55;14.60;99.90
31046;DHT22;17711;54.018;9.300;2022-10-03T17:41:00;14.50;99.90
31046;DHT22;17711;54.018;9.300;2022-10-03T17:43:38;14.50;99.90
31046;DHT22;17711;54.018;9.300;2022-10-03T17:46:14;14.50;99.90
31046;DHT22;17711;54.018;9.300;2022-10-03T17:48:53;14.40;99.90
31046;DHT22;17711;54.018;9.300;2022-10-03T17:51:33;14.40;99.90
31046;DHT22;17711;54.018;9.300;2022-10-03T17:54:10;14.40;99.90
31046;DHT22;17711;54.018;9.300;2022-10-03T17:56:44;14.40;99.90
31046;DHT22;17711;54.018;9.300;2022-10-03T17:59:21;14.40;99.90
31046;DHT22;17711;54.018;9.300;2022-10-03T18:01:56;14.30;99.90
31046;DHT22;17711;54.018;9.300;2022-10-03T18:04:34;14.30;99.90
31046;DHT22;17711;54.018;9.300;2022-10-03T18:07:10;14.20;99.90
31046;DHT22;17711;54.018;9.300;2022-10-03T18:09:42;14.20;99.90
31046;DHT22;17711;54.018;9.300;2022-10-03T18:12:20;14.10;99.90
31046;DHT22;17711;54.018;9.300;2022-10-03T18:18:52;14.20;99.90
31046;DHT22;17711;54.018;9.300;2022-10-03T18:21:33;14.20;99.90
31046;DHT22;17711;54.018;9.300;2022-10-03T18:24:19;14.20;99.90
31046;DHT22;17711;54.018;9.300;2022-10-03T18:27:01;14.30;99.90
31046;DHT22;17711;54.018;9.300;2022-10-03T18:29:35;14.40;99.90
31046;DHT22;17711;54.018;9.300;2022-10-03T18:32:12;14.50;99.90
31046;DHT22;17711;54.018;9.300;2022-10-03T18:34:45;14.50;99.90
31046;DHT22;17711;54.018;9.300;2022-10-03T18:37:51;14.50;99.90
31046;DHT22;17711;54.018;9.300;2022-10-03T18:40:26;14.60;99.90
31046;DHT22;17711;54.018;9.300;2022-10-03T18:42:56;14.60;99.90
31046;DHT22;17711;54.018;9.300;2022-10-03T18:45:29;14.70;99.90
31046;DHT22;17711;54.018;9.300;2022-10-03T18:48:06;14.60;99.90
31046;DHT22;17711;54.018;9.300;2022-10-03T18:50:51;14.60;99.90
31046;DHT22;17711;54.018;9.300;2022-10-03T18:53:32;14.60;99.90
31046;DHT22;17711;54.018;9.300;2022-10-03T18:56:05;14.60;99.90
31046;DHT22;17711;54.018;9.300;2022-10-03T18:58:40;14.60;99.90
31046;DHT22;17711;54.018;9.300;2022-10-03T19:01:16;14.60;99.90
31046;DHT22;17711;54.018;9.300;2022-10-03T19:03:52;14.60;99.90
31046;DHT22;17711;54.018;9.300;2022-10-03T19:06:25;14.60;99.90
31046;DHT22;17711;54.018;9.300;2022-10-03T19:08:59;14.60;99.90
31046;DHT22;17711;54.018;9.300;2022-10-03T19:11:35;14.50;99.90
31046;DHT22;17711;54.018;9.300;2022-10-03T19:14:10;14.50;99.90
31046;DHT22;17711;54.018;9.300;2022-10-03T19:16:57;14.50;99.90
31046;DHT22;17711;54.018;9.300;2022-10-03T19:19:32;14.50;99.90
31046;DHT22;17711;54.018;9.300;2022-10-03T19:22:05;14.50;99.90
31046;DHT22;17711;54.018;9.300;2022-10-03T19:24:39;14.50;99.90
31046;DHT22;17711;54.018;9.300;2022-10-03T19:27:39;14.50;99.90
31046;DHT22;17711;54.018;9.300;2022-10-03T19:30:11;14.40;99.90
31046;DHT22;17711;54.018;9.300;2022-10-03T19:32:53;14.40;99.90
31046;DHT22;17711;54.018;9.300;2022-10-03T19:35:25;14.30;99.90
31046;DHT22;17711;54.018;9.300;2022-10-03T19:37:59;14.30;99.90
31046;DHT22;17711;54.018;9.300;2022-10-03T19:40:42;14.30;99.90
31046;DHT22;17711;54.018;9.300;2022-10-03T19:43:40;14.20;99.90
31046;DHT22;17711;54.018;9.300;2022-10-03T19:49:24;14.10;99.90
31046;DHT22;17711;54.018;9.300;2022-10-03T19:52:16;14.00;99.90
31046;DHT22;17711;54.018;9.300;2022-10-03T19:54:51;13.90;99.90
31046;DHT22;17711;54.018;9.300;2022-10-03T19:57:26;13.90;99.90
31046;DHT22;17711;54.018;9.300;2022-10-03T19:59:57;13.90;99.90
31046;DHT22;17711;54.018;9.300;2022-10-03T20:02:28;13.90;99.90
31046;DHT22;17711;54.018;9.300;2022-10-03T20:04:57;13.80;99.90
31046;DHT22;17711;54.018;9.300;2022-10-03T20:07:44;13.80;99.90
31046;DHT22;17711;54.018;9.300;2022-10-03T20:10:25;13.70;99.90
31046;DHT22;17711;54.018;9.300;2022-10-03T20:13:02;13.70;99.90
31046;DHT22;17711;54.018;9.300;2022-10-03T20:18:51;13.70;99.90
31046;DHT22;17711;54.018;9.300;2022-10-03T20:21:24;13.70;99.90
31046;DHT22;17711;54.018;9.300;2022-10-03T20:23:53;13.50;99.90
31046;DHT22;17711;54.018;9.300;2022-10-03T20:26:28;13.40;99.90
31046;DHT22;17711;54.018;9.300;2022-10-03T20:29:17;13.40;99.90
31046;DHT22;17711;54.018;9.300;2022-10-03T20:31:48;13.40;99.90
31046;DHT22;17711;54.018;9.300;2022-10-03T20:34:22;13.40;99.90
31046;DHT22;17711;54.018;9.300;2022-10-03T20:36:56;13.40;99.90
31046;DHT22;17711;54.018;9.300;2022-10-03T20:39:49;13.40;99.90
31046;DHT22;17711;54.018;9.300;2022-10-03T20:42:39;13.40;99.90
31046;DHT22;17711;54.018;9.300;2022-10-03T20:45:35;13.40;99.90
31046;DHT22;17711;54.018;9.300;2022-10-03T20:48:29;13.40;99.90
31046;DHT22;17711;54.018;9.300;2022-10-03T20:51:21;13.40;99.90
31046;DHT22;17711;54.018;9.300;2022-10-03T20:53:51;13.30;99.90
31046;DHT22;17711;54.018;9.300;2022-10-03T20:56:27;13.40;99.90
31046;DHT22;17711;54.018;9.300;2022-10-03T20:59:01;13.40;99.90
31046;DHT22;17711;54.018;9.300;2022-10-03T21:01:36;13.30;99.90
31046;DHT22;17711;54.018;9.300;2022-10-03T21:04:12;13.30;99.90
31046;DHT22;17711;54.018;9.300;2022-10-03T21:06:51;13.30;99.90
31046;DHT22;17711;54.018;9.300;2022-10-03T21:09:37;13.20;99.90
31046;DHT22;17711;54.018;9.300;2022-10-03T21:12:14;13.10;99.90
31046;DHT22;17711;54.018;9.300;2022-10-03T21:14:47;13.20;99.90
31046;DHT22;17711;54.018;9.300;2022-10-03T21:17:20;13.20;99.90
31046;DHT22;17711;54.018;9.300;2022-10-03T21:19:51;13.10;99.90
31046;DHT22;17711;54.018;9.300;2022-10-03T21:22:22;13.00;99.90
31046;DHT22;17711;54.018;9.300;2022-10-03T21:24:55;13.00;99.90
31046;DHT22;17711;54.018;9.300;2022-10-03T21:27:25;13.00;99.90
31046;DHT22;17711;54.018;9.300;2022-10-03T21:29:57;13.00;99.90
31046;DHT22;17711;54.018;9.300;2022-10-03T21:32:56;13.00;99.90
31046;DHT22;17711;54.018;9.300;2022-10-03T21:35:28;13.00;99.90
31046;DHT22;17711;54.018;9.300;2022-10-03T21:38:13;12.90;99.90
31046;DHT22;17711;54.018;9.300;2022-10-03T21:41:01;12.90;99.90
31046;DHT22;17711;54.018;9.300;2022-10-03T21:43:42;12.80;99.90
31046;DHT22;17711;54.018;9.300;2022-10-03T21:46:18;12.80;99.90
31046;DHT22;17711;54.018;9.300;2022-10-03T21:49:04;12.70;99.90
31046;DHT22;17711;54.018;9.300;2022-10-03T21:51:41;12.70;99.90
31046;DHT22;17711;54.018;9.300;2022-10-03T21:54:26;12.60;99.90
31046;DHT22;17711;54.018;9.300;2022-10-03T21:57:06;12.60;99.90
31046;DHT22;17711;54.018;9.300;2022-10-03T21:59:52;12.60;99.90
31046;DHT22;17711;54.018;9.300;2022-10-03T22:02:30;12.50;99.90
31046;DHT22;17711;54.018;9.300;2022-10-03T22:05:06;12.50;99.90
31046;DHT22;17711;54.018;9.300;2022-10-03T22:07:42;12.50;99.90
31046;DHT22;17711;54.018;9.300;2022-10-03T22:10:15;12.40;99.90
31046;DHT22;17711;54.018;9.300;2022-10-03T22:12:49;12.30;99.90
31046;DHT22;17711;54.018;9.300;2022-10-03T22:15:28;12.20;99.90
31046;DHT22;17711;54.018;9.300;2022-10-03T22:18:04;12.20;99.90
31046;DHT22;17711;54.018;9.300;2022-10-03T22:20:46;12.10;99.90
31046;DHT22;17711;54.018;9.300;2022-10-03T22:23:24;12.10;99.90
31046;DHT22;17711;54.018;9.300;2022-10-03T22:26:09;12.00;99.90
31046;DHT22;17711;54.018;9.300;2022-10-03T22:28:49;12.00;99.90
31046;DHT22;17711;54.018;9.300;2022-10-03T22:31:25;11.90;99.90
31046;DHT22;17711;54.018;9.300;2022-10-03T22:34:10;11.80;99.90
31046;DHT22;17711;54.018;9.300;2022-10-03T22:36:46;11.80;99.90
31046;DHT22;17711;54.018;9.300;2022-10-03T22:39:17;11.70;99.90
31046;DHT22;17711;54.018;9.300;2022-10-03T22:41:50;11.70;99.90
31046;DHT22;17711;54.018;9.300;2022-10-03T22:44:22;11.60;99.90
31046;DHT22;17711;54.018;9.300;2022-10-03T22:46:55;11.60;99.90
31046;DHT22;17711;54.018;9.300;2022-10-03T22:49:27;11.50;99.90
31046;DHT22;17711;54.018;9.300;2022-10-03T22:52:01;11.50;99.90
31046;DHT22;17711;54.018;9.300;2022-10-03T22:54:33;11.50;99.90
31046;DHT22;17711;54.018;9.300;2022-10-03T22:57:05;11.50;99.90
31046;DHT22;17711;54.018;9.300;2022-10-03T22:59:38;11.60;99.90
31046;DHT22;17711;54.018;9.300;2022-10-03T23:02:09;11.60;99.90
31046;DHT22;17711;54.018;9.300;2022-10-03T23:04:41;11.60;99.90
31046;DHT22;17711;54.018;9.300;2022-10-03T23:07:52;11.60;99.90
31046;DHT22;17711;54.018;9.300;2022-10-03T23:10:35;11.70;99.90
31046;DHT22;17711;54.018;9.300;2022-10-03T23:13:09;11.70;99.90
31046;DHT22;17711;54.018;9.300;2022-10-03T23:15:43;11.70;99.90
31046;DHT22;17711;54.018;9.300;2022-10-03T23:18:44;11.70;99.90
31046;DHT22;17711;54.018;9.300;2022-10-03T23:21:15;11.60;99.90
31046;DHT22;17711;54.018;9.300;2022-10-03T23:23:54;11.60;99.90
31046;DHT22;17711;54.018;9.300;2022-10-03T23:29:31;11.50;99.90
31046;DHT22;17711;54.018;9.300;2022-10-03T23:32:02;11.50;99.90
31046;DHT22;17711;54.018;9.300;2022-10-03T23:37:38;11.40;99.90
31046;DHT22;17711;54.018;9.300;2022-10-03T23:40:37;11.30;99.90
31046;DHT22;17711;54.018;9.300;2022-10-03T23:43:27;11.30;99.90
31046;DHT22;17711;54.018;9.300;2022-10-03T23:45:58;11.30;99.90
31046;DHT22;17711;54.018;9.300;2022-10-03T23:48:29;11.30;99.90
31046;DHT22;17711;54.018;9.300;2022-10-03T23:51:00;11.30;99.90
31046;DHT22;17711;54.018;9.300;2022-10-03T23:53:33;11.20;99.90
31046;DHT22;17711;54.018;9.300;2022-10-03T23:56:21;11.30;99.90
31046;DHT22;17711;54.018;9.300;2022-10-03T23:58:55;11.30;99.90
